Time;durP1;ratioP1;P1;durP2;ratioP2;P2;SDS_P1;SDS_P2;PMS_P1;PMS_P2;Temp;Humidity;BMP_temperature;BMP_pressure;BME280_temperature;BME280_humidity;BME280_pressure;Samples;Min_cycle;Max_cycle;Signal;HPM_P1;HPM_P2
2022/01/27 00:03:50;;;;;;;9.07;3.53;;;8.60;69.30;;;;;;20655550;28;20038;-88
2022/01/27 00:13:59;;;;;;;10.10;4.53;;;8.60;69.40;;;;;;20653529;28;20034;-88
2022/01/27 00:24:00;;;;;;;7.00;3.63;;;8.70;69.50;;;;;;20668596;28;20400;-88
2022/01/27 00:34:04;;;;;;;8.50;4.15;;;8.60;69.50;;;;;;20667160;28;20158;-88
2022/01/27 00:44:06;;;;;;;8.65;3.78;;;8.60;69.50;;;;;;20665592;28;20030;-89
2022/01/27 00:54:14;;;;;;;6.90;4.10;;;8.60;69.60;;;;;;20665774;28;20047;-88
2022/01/27 01:04:23;;;;;;;10.75;3.65;;;8.60;69.60;;;;;;20665932;28;20038;-88
2022/01/27 01:14:43;;;;;;;10.82;4.22;;;8.60;69.60;;;;;;20663056;28;20049;-89
2022/01/27 01:35:07;;;;;;;7.10;3.58;;;8.60;69.70;;;;;;20664809;28;20392;-88
2022/01/27 01:45:10;;;;;;;7.32;4.22;;;8.60;69.70;;;;;;20646342;28;20121;-88
2022/01/27 01:55:11;;;;;;;5.25;3.03;;;8.60;69.70;;;;;;20661125;28;20038;-88
2022/01/27 02:05:12;;;;;;;4.72;2.78;;;8.60;69.70;;;;;;20643412;28;20448;-88
2022/01/27 02:25:33;;;;;;;6.50;3.67;;;8.60;69.80;;;;;;20675481;28;20026;-88
2022/01/27 02:35:34;;;;;;;6.10;3.13;;;8.60;69.80;;;;;;20658178;28;20050;-90
2022/01/27 02:46:00;;;;;;;8.35;3.83;;;8.60;69.80;;;;;;20656407;28;20050;-89
2022/01/27 02:56:01;;;;;;;7.50;3.50;;;8.60;69.80;;;;;;20656159;28;20054;-88
2022/01/27 03:06:01;;;;;;;7.85;3.55;;;8.60;69.80;;;;;;20639493;28;20044;-88
2022/01/27 03:16:06;;;;;;;6.55;3.63;;;8.60;69.80;;;;;;20671583;28;20116;-88
2022/01/27 03:26:08;;;;;;;7.65;4.22;;;8.60;69.80;;;;;;20670782;28;20031;-88
2022/01/27 03:36:09;;;;;;;7.28;4.10;;;8.50;69.70;;;;;;20653337;28;20771;-88
2022/01/27 03:46:10;;;;;;;6.95;3.72;;;8.50;69.60;;;;;;20654596;28;20069;-89
2022/01/27 03:56:11;;;;;;;8.70;3.83;;;8.60;69.60;;;;;;20665235;28;20073;-88
2022/01/27 04:06:14;;;;;;;11.70;5.60;;;8.60;69.60;;;;;;20668993;28;20027;-88
2022/01/27 04:16:16;;;;;;;11.52;5.97;;;8.50;69.40;;;;;;20669159;28;20038;-88
2022/01/27 04:26:22;;;;;;;11.23;5.15;;;8.50;69.40;;;;;;20683971;28;20422;-87
2022/01/27 04:36:31;;;;;;;12.87;6.73;;;8.50;69.30;;;;;;20636774;28;20057;-89
2022/01/27 04:46:40;;;;;;;11.63;5.93;;;8.50;69.20;;;;;;20667707;28;20031;-89
2022/01/27 04:56:41;;;;;;;17.17;8.13;;;8.50;69.20;;;;;;20650876;28;20042;-88
2022/01/27 05:06:42;;;;;;;17.17;7.93;;;8.60;69.10;;;;;;20664416;28;20508;-87
2022/01/27 05:16:43;;;;;;;14.77;7.13;;;8.60;69.00;;;;;;20663563;28;20030;-80
2022/01/27 05:26:44;;;;;;;15.73;8.07;;;8.60;68.70;;;;;;20627602;28;20376;-79
2022/01/27 05:36:45;;;;;;;14.52;7.50;;;8.90;68.00;;;;;;20626384;28;20569;-78
2022/01/27 05:46:46;;;;;;;17.40;7.63;;;9.30;67.00;;;;;;20672838;28;20046;-80
2022/01/27 05:56:47;;;;;;;14.53;8.23;;;9.60;66.50;;;;;;20617777;28;20040;-79
2022/01/27 06:06:48;;;;;;;13.30;7.18;;;9.80;64.80;;;;;;20701475;28;20794;-78
2022/01/27 06:16:48;;;;;;;12.30;7.05;;;9.90;64.20;;;;;;20655453;28;20038;-76
2022/01/27 06:26:49;;;;;;;12.00;7.00;;;9.90;64.00;;;;;;20622616;28;20053;-80
2022/01/27 06:36:50;;;;;;;15.25;7.60;;;9.70;64.00;;;;;;20620728;28;20659;-85
2022/01/27 06:46:51;;;;;;;15.80;8.23;;;9.50;64.50;;;;;;20636970;28;20045;-83
2022/01/27 06:56:52;;;;;;;13.65;7.70;;;9.30;65.00;;;;;;20669988;28;20377;-80
2022/01/27 07:06:53;;;;;;;15.38;7.80;;;9.20;65.60;;;;;;20650903;28;20042;-80
2022/01/27 07:16:56;;;;;;;14.38;7.80;;;9.00;66.00;;;;;;20635979;28;20413;-83
2022/01/27 07:26:57;;;;;;;17.80;8.20;;;8.90;66.30;;;;;;20698938;28;20037;-80
2022/01/27 07:37:00;;;;;;;19.40;8.23;;;8.90;66.70;;;;;;20619253;28;20090;-79
2022/01/27 07:47:01;;;;;;;20.60;7.93;;;8.80;66.90;;;;;;20649046;28;20129;-79
2022/01/27 07:57:02;;;;;;;15.30;7.63;;;8.80;67.20;;;;;;20662596;28;20061;-83
2022/01/27 08:07:02;;;;;;;11.93;6.88;;;8.70;67.40;;;;;;20710214;28;20405;-77
2022/01/27 08:17:03;;;;;;;14.00;7.93;;;8.70;67.70;;;;;;20631369;28;20477;-77
2022/01/27 08:27:06;;;;;;;13.30;7.15;;;8.70;67.90;;;;;;20708216;28;20125;-77
2022/01/27 08:37:13;;;;;;;13.65;8.18;;;8.60;68.00;;;;;;20714775;28;20034;-75
2022/01/27 08:47:15;;;;;;;14.52;6.80;;;8.60;68.20;;;;;;20726861;28;20069;-79
2022/01/27 08:57:16;;;;;;;14.38;7.43;;;8.60;68.40;;;;;;20655215;28;20038;-76
2022/01/27 09:07:16;;;;;;;12.55;6.32;;;8.60;68.60;;;;;;20707577;28;20122;-76
2022/01/27 09:17:17;;;;;;;12.30;6.60;;;8.60;68.70;;;;;;20748727;28;20034;-74
2022/01/27 09:27:18;;;;;;;11.02;5.85;;;8.60;68.80;;;;;;20644934;28;20290;-75
2022/01/27 09:37:19;;;;;;;15.02;6.80;;;8.60;69.00;;;;;;20652934;28;20504;-75
2022/01/27 09:47:19;;;;;;;11.52;5.72;;;8.60;69.10;;;;;;20641782;28;20037;-75
2022/01/27 09:57:20;;;;;;;9.85;5.82;;;8.60;69.20;;;;;;20703077;28;20037;-75
2022/01/27 10:07:29;;;;;;;11.32;4.80;;;8.60;69.30;;;;;;20640948;28;20042;-75
2022/01/27 10:17:31;;;;;;;11.15;5.13;;;8.60;69.40;;;;;;20649484;28;20516;-74
2022/01/27 10:27:45;;;;;;;9.63;4.82;;;8.60;69.50;;;;;;20661406;28;20042;-74
2022/01/27 10:37:52;;;;;;;7.85;4.90;;;8.60;69.60;;;;;;20652464;28;20433;-75
2022/01/27 10:47:55;;;;;;;7.93;4.33;;;8.60;69.80;;;;;;20649230;28;20065;-76
2022/01/27 10:57:56;;;;;;;12.07;3.88;;;8.60;69.80;;;;;;20633041;28;20036;-76
2022/01/27 11:07:58;;;;;;;5.75;2.45;;;8.60;70.00;;;;;;20688234;28;20100;-78
2022/01/27 11:17:59;;;;;;;7.25;3.25;;;8.60;70.00;;;;;;20706368;28;20030;-81
2022/01/27 11:28:02;;;;;;;5.07;2.88;;;8.80;69.90;;;;;;20635700;28;20073;-78
2022/01/27 11:38:04;;;;;;;5.70;2.65;;;9.00;69.50;;;;;;20634749;28;20037;-77
2022/01/27 11:48:15;;;;;;;3.67;2.38;;;9.30;68.80;;;;;;21050878;23;20042;-83
2022/01/27 11:58:17;;;;;;;3.45;1.90;;;9.60;68.20;;;;;;20647679;28;20480;-75
2022/01/27 12:08:19;;;;;;;5.55;2.17;;;9.80;67.70;;;;;;20646268;28;20097;-74
2022/01/27 12:18:36;;;;;;;4.18;1.90;;;9.80;67.50;;;;;;20675532;28;20400;-78
2022/01/27 12:28:37;;;;;;;3.30;1.73;;;9.80;67.60;;;;;;20646478;28;20070;-76
2022/01/27 12:38:38;;;;;;;4.43;1.90;;;9.70;67.90;;;;;;20658639;28;20151;-77
2022/01/27 12:48:46;;;;;;;3.25;1.95;;;9.50;68.50;;;;;;20657717;28;20069;-75
2022/01/27 12:58:46;;;;;;;3.05;1.65;;;9.30;69.10;;;;;;20655609;28;20034;-78
2022/01/27 13:08:47;;;;;;;2.65;1.45;;;9.20;69.70;;;;;;20638538;28;20050;-79
2022/01/27 13:19:05;;;;;;;3.28;1.88;;;9.10;70.30;;;;;;20636422;28;20125;-78
2022/01/27 13:29:05;;;;;;;2.90;1.83;;;9.00;70.60;;;;;;20689076;28;20038;-81
2022/01/27 13:39:34;;;;;;;2.53;1.50;;;8.90;70.90;;;;;;20738787;28;20475;-82
2022/01/27 13:49:35;;;;;;;2.28;1.73;;;8.90;71.30;;;;;;20729158;28;20070;-83
2022/01/27 13:59:58;;;;;;;2.72;1.70;;;8.80;71.60;;;;;;20641013;28;20357;-78
2022/01/27 14:10:22;;;;;;;2.85;1.55;;;8.80;71.90;;;;;;20710494;28;20044;-76
2022/01/27 14:20:23;;;;;;;2.35;1.23;;;8.80;72.20;;;;;;20708937;28;20148;-79
2022/01/27 14:30:25;;;;;;;5.10;1.92;;;8.70;72.40;;;;;;20696341;28;20747;-78
2022/01/27 14:40:26;;;;;;;4.45;1.83;;;8.70;72.70;;;;;;20721177;28;20484;-77
2022/01/27 14:50:28;;;;;;;3.45;1.83;;;8.70;73.00;;;;;;20694089;28;20038;-78
2022/01/27 15:00:28;;;;;;;2.03;1.00;;;8.70;73.20;;;;;;20634867;28;20041;-78
2022/01/27 15:10:30;;;;;;;2.65;1.40;;;8.70;73.40;;;;;;20664743;28;20042;-77
2022/01/27 15:20:36;;;;;;;3.35;1.70;;;8.70;73.70;;;;;;20638195;28;20042;-78
2022/01/27 15:30:37;;;;;;;5.32;1.98;;;8.70;74.00;;;;;;20655607;28;20033;-77
2022/01/27 15:40:39;;;;;;;4.57;1.45;;;8.70;74.40;;;;;;20657718;28;20038;-76
2022/01/27 15:50:40;;;;;;;3.47;1.38;;;8.80;75.00;;;;;;20639748;28;20481;-78
2022/01/27 16:00:45;;;;;;;2.60;1.05;;;8.90;74.70;;;;;;20630467;28;20173;-80
2022/01/27 16:10:46;;;;;;;1.85;0.90;;;9.10;74.20;;;;;;20632877;28;20042;-77
2022/01/27 16:20:47;;;;;;;2.92;1.27;;;9.30;73.60;;;;;;20647458;28;20073;-80
2022/01/27 16:30:50;;;;;;;3.10;0.93;;;9.50;72.90;;;;;;20631734;28;20082;-81
2022/01/27 16:40:53;;;;;;;2.60;1.13;;;9.60;72.30;;;;;;20647612;28;20125;-78
2022/01/27 16:50:53;;;;;;;1.70;0.85;;;9.60;72.00;;;;;;20643511;28;20105;-81
2022/01/27 17:00:55;;;;;;;4.57;1.20;;;9.50;72.00;;;;;;20643962;28;20058;-82
2022/01/27 17:10:56;;;;;;;3.42;1.17;;;9.30;72.10;;;;;;20585999;28;20043;-82
2022/01/27 17:20:58;;;;;;;3.85;0.80;;;9.20;72.40;;;;;;20578125;28;20089;-86
2022/01/27 17:30:59;;;;;;;2.90;1.10;;;9.10;72.70;;;;;;20596369;28;20074;-78
2022/01/27 17:41:01;;;;;;;3.78;1.13;;;9.10;73.00;;;;;;20577868;28;20038;-83
2022/01/27 17:51:03;;;;;;;4.82;1.67;;;9.00;73.20;;;;;;20607301;28;20121;-77
2022/01/27 18:01:03;;;;;;;2.58;0.90;;;8.90;74.00;;;;;;20656705;28;20041;-80
2022/01/27 18:11:04;;;;;;;4.75;1.02;;;8.90;73.60;;;;;;20654488;28;20034;-75
2022/01/27 18:21:04;;;;;;;3.42;0.88;;;8.90;73.70;;;;;;20656649;28;20038;-76
2022/01/27 18:31:05;;;;;;;2.22;0.90;;;8.80;73.70;;;;;;20637986;28;20370;-75
2022/01/27 18:41:06;;;;;;;4.97;1.42;;;8.90;73.80;;;;;;20650721;28;20144;-78
2022/01/27 18:51:07;;;;;;;14.75;1.30;;;8.80;73.80;;;;;;20650622;28;20209;-82
2022/01/27 19:01:07;;;;;;;7.75;1.10;;;8.80;73.70;;;;;;20628590;28;20053;-77
2022/01/27 19:11:08;;;;;;;5.57;1.10;;;8.80;73.80;;;;;;20631530;28;20614;-79
2022/01/27 19:21:09;;;;;;;5.82;0.88;;;8.80;73.80;;;;;;20649722;28;20294;-77
2022/01/27 19:31:10;;;;;;;1.75;0.73;;;8.70;73.80;;;;;;20651233;28;20057;-81
2022/01/27 19:41:12;;;;;;;5.35;1.02;;;8.80;73.70;;;;;;20648159;28;20591;-77
2022/01/27 19:51:22;;;;;;;3.85;0.90;;;8.70;73.60;;;;;;20645134;28;20045;-79
2022/01/27 20:01:23;;;;;;;3.33;0.75;;;8.70;73.50;;;;;;20656685;28;20525;-79
2022/01/27 20:11:25;;;;;;;5.53;1.42;;;8.70;73.40;;;;;;20675984;28;20124;-80
2022/01/27 20:21:25;;;;;;;6.75;1.50;;;8.70;73.30;;;;;;20724739;28;20038;-81
2022/01/27 20:31:27;;;;;;;4.68;0.80;;;8.70;73.90;;;;;;20656987;28;20050;-80
2022/01/27 20:41:27;;;;;;;7.05;1.25;;;8.70;73.10;;;;;;20638027;28;20030;-80
2022/01/27 20:51:28;;;;;;;7.25;1.20;;;8.70;73.00;;;;;;20655688;28;20050;-80
2022/01/27 21:01:29;;;;;;;9.17;2.17;;;8.70;72.90;;;;;;20672510;28;20034;-80
2022/01/27 21:11:31;;;;;;;5.07;1.08;;;8.70;72.90;;;;;;20640403;28;20297;-80
2022/01/27 21:21:32;;;;;;;7.07;0.90;;;8.70;72.70;;;;;;20640028;28;20109;-81
2022/01/27 21:31:32;;;;;;;5.10;1.25;;;8.70;72.60;;;;;;20624522;28;20125;-80
2022/01/27 21:41:33;;;;;;;4.90;1.20;;;8.70;72.50;;;;;;20671175;28;20508;-80
2022/01/27 21:51:33;;;;;;;6.78;1.25;;;8.70;72.40;;;;;;20650515;28;20129;-81
2022/01/27 22:01:34;;;;;;;3.58;1.17;;;8.80;72.30;;;;;;20670700;28;20026;-80
2022/01/27 22:11:34;;;;;;;6.28;1.23;;;8.70;72.20;;;;;;20669317;28;20035;-80
2022/01/27 22:21:35;;;;;;;2.47;0.80;;;8.70;72.20;;;;;;20652891;28;20038;-81
2022/01/27 22:31:36;;;;;;;4.25;1.48;;;8.70;72.20;;;;;;20666822;28;20058;-80
2022/01/27 22:41:36;;;;;;;5.30;1.25;;;8.70;72.20;;;;;;20650116;28;20041;-80
2022/01/27 22:51:37;;;;;;;3.00;0.98;;;8.70;72.10;;;;;;20665449;28;20046;-80
2022/01/27 23:01:38;;;;;;;3.97;0.75;;;8.70;72.10;;;;;;20647844;28;20475;-81
2022/01/27 23:11:41;;;;;;;4.15;1.17;;;8.70;72.00;;;;;;20648122;28;20040;-78
2022/01/27 23:21:55;;;;;;;3.53;1.15;;;8.60;71.80;;;;;;20663816;28;20035;-80
2022/01/27 23:31:55;;;;;;;4.03;1.10;;;8.60;71.80;;;;;;20648756;28;20068;-80
2022/01/27 23:42:07;;;;;;;4.05;1.10;;;8.60;71.70;;;;;;20662773;28;20299;-80
